Wayton, Arkansas
Current Conditions -  °F | °C
As of 3:53 AM on Tuesday 21 Oct 2014 (Local Time) from KHRO Reporting Station
Haze Haze  
Wind Chill: 54°   Ceiling: Unl
Heat Index: 54°   Visibility: 3mi
Dew Point: 54°   Wind: 3mph
Humidity: 100%   Direction: 300°WNW
Pressure: 30.09"   Gusts: NA
Location:  35.8413°N, 93.3507°W
Report Text: KHRO 210853Z AUTO 30003KT 3SM BR CLR 12/12 A3009 RMK AO2 SLP182 T01220122 50005
Loading
Personal Weather Stations






























Interactive Weather Map
Tropical Storm Tracking
New forecast layout! Learn more

10-Day Weather Forecast

Advertisements
Track Severe Weather on mobile